Date,TemperatureHighF,TemperatureAvgF,TemperatureLowF,DewpointHighF,DewpointAvgF,DewpointLowF,HumidityHigh,HumidityAvg,HumidityLow,PressureMaxIn,PressureMinIn,WindSpeedMaxMPH,WindSpeedAvgMPH,GustSpeedMaxMPH,PrecipitationSumIn
2012-1-1,42.7,34.7,24.5,28.4,16.1,2.1,71,49,21,30.54,30.00,12,3,12,0.00
2012-1-2,34.7,23.7,13.3,12.4,6.0,-2.1,71,49,24,30.61,30.41,5,2,5,0.00
2012-1-3,51.8,33.9,16.0,30.0,19.4,3.9,70,56,42,30.41,29.91,19,4,19,0.00
2012-1-4,58.9,44.0,30.6,31.9,27.4,20.5,74,53,32,30.25,30.03,5,2,5,0.00
2012-1-5,68.0,48.1,29.0,39.3,29.4,21.2,74,51,30,30.06,29.69,10,3,10,0.00
2012-1-6,51.5,42.5,32.4,31.9,26.4,19.2,74,54,36,30.05,29.67,7,2,7,0.00
2012-1-7,46.4,32.8,18.7,27.8,20.8,11.8,78,62,46,30.22,30.04,3,0,3,0.00
2012-1-8,47.3,34.1,24.8,32.1,24.3,19.4,82,68,47,30.30,30.22,4,1,4,0.00
2012-1-9,54.4,37.4,23.2,37.5,25.2,19.2,88,64,37,30.22,30.01,6,2,6,0.00
2012-1-10,63.5,41.6,25.6,39.5,28.1,19.7,85,62,33,30.01,29.67,5,2,5,0.00
2012-1-11,38.9,30.8,21.1,33.3,22.9,11.1,86,72,60,29.99,29.57,10,3,10,0.00
2012-1-12,21.1,15.5,9.4,13.8,6.8,1.8,78,68,62,30.03,29.93,7,2,7,0.00
2012-1-13,33.7,20.6,4.1,19.5,6.8,-3.4,76,57,32,30.07,29.80,6,1,6,0.00
2012-1-14,46.3,33.4,23.6,29.4,19.3,10.7,85,58,33,30.12,29.79,7,2,7,0.00
2012-1-15,55.1,41.6,27.0,28.1,22.9,14.7,62,48,33,30.05,29.69,17,7,17,0.00
2012-1-16,40.7,31.8,19.1,28.2,21.1,11.4,78,65,53,29.93,29.69,7,2,7,0.00
2012-1-17,25.9,17.4,7.6,14.0,8.2,-0.3,80,68,50,30.31,29.93,5,2,5,0.00
2012-1-18,41.0,23.1,6.1,24.3,13.5,-0.2,82,67,49,30.24,29.77,15,6,15,0.00
2012-1-19,13.1,11.0,9.7,4.1,2.0,0.5,68,67,66,29.98,29.92,7,4,7,0.00
2012-1-20,33.5,13.0,7.4,24.8,4.4,1.0,79,69,46,30.20,30.07,7,2,7,0.00
2012-1-21,25.9,17.4,5.4,19.4,11.0,-0.4,85,76,63,30.18,29.59,13,3,13,0.00
2012-1-22,49.1,35.1,23.0,40.0,28.8,19.2,92,79,54,29.60,29.36,12,3,12,0.00
2012-1-23,34.4,28.2,13.7,29.9,22.8,9.7,91,80,72,30.04,29.59,6,2,6,0.00
2012-1-24,35.1,23.9,8.5,30.3,19.8,4.7,90,84,78,30.19,30.03,8,2,8,0.00
2012-1-25,42.3,31.0,23.4,36.3,27.6,21.4,93,87,74,30.17,29.89,6,1,6,0.00
2012-1-26,49.7,35.8,22.9,35.2,25.9,15.0,94,69,43,29.92,29.85,6,2,6,0.00
2012-1-27,44.8,33.1,24.1,32.4,24.1,17.6,79,70,45,30.18,29.82,4,1,4,0.00
2012-1-28,46.8,33.1,19.3,21.5,14.7,8.6,80,50,25,30.20,30.12,10,4,10,0.00
2012-1-29,45.0,33.7,21.1,22.2,16.4,8.9,66,49,38,30.21,29.89,10,2,10,0.00
2012-1-30,71.3,51.5,36.0,33.9,26.6,19.7,58,40,22,29.87,29.69,10,5,10,0.00
2012-1-31,61.2,45.9,28.1,36.9,30.0,19.6,80,56,36,30.04,29.73,6,2,6,0.00
2012-2-1,69.5,43.3,26.6,38.0,23.2,15.2,73,49,25,30.12,30.04,6,1,6,0.00
2012-2-2,55.3,38.0,22.5,32.5,24.5,14.4,75,59,42,30.19,30.12,4,1,4,0.00
2012-2-3,47.9,39.3,32.9,38.7,35.4,28.9,95,87,52,30.22,30.11,21,6,21,0.00
2012-2-4,34.0,32.0,29.0,32.7,30.6,27.2,95,95,93,30.34,30.14,5,0,5,0.00
2012-2-5,48.1,26.0,11.2,39.0,21.6,7.7,94,84,65,30.38,30.27,1,0,1,0.00
2012-2-6,45.0,26.2,8.6,34.7,20.6,5.3,90,80,66,30.26,30.12,4,1,4,0.00
2012-2-7,33.8,29.0,24.8,30.0,25.7,21.0,90,87,84,30.47,30.18,6,3,6,0.00
2012-2-8,42.8,27.2,21.8,29.9,20.7,16.6,86,77,57,30.47,30.30,3,0,3,0.00
2012-2-9,47.7,31.3,24.3,35.4,25.8,19.6,90,81,61,30.30,30.02,9,3,9,0.00
2012-2-10,29.9,16.8,3.4,24.5,7.6,-3.9,82,67,54,30.54,30.05,4,2,4,0.00
2012-2-11,20.5,8.3,-1.6,3.2,-2.5,-7.9,77,62,45,30.73,30.54,3,1,3,0.00
2012-2-12,33.5,16.8,-5.0,18.3,5.9,-11.1,82,63,42,30.56,30.00,15,3,15,0.00
2012-2-13,40.5,30.1,20.7,32.8,25.6,17.7,94,84,72,30.00,29.70,13,2,13,0.00
2012-2-14,52.7,30.6,11.3,36.9,24.0,8.6,92,78,51,29.83,29.76,8,2,8,0.00
2012-2-15,50.9,33.7,19.8,42.0,29.4,17.3,93,84,61,30.13,29.81,5,1,5,0.00
2012-2-16,50.8,35.2,22.7,34.2,26.9,18.8,88,73,47,30.25,30.06,6,2,6,0.00
2012-2-17,52.0,34.8,23.0,34.5,26.8,18.4,83,73,48,30.21,30.00,8,2,8,0.00
2012-2-18,50.6,29.2,16.0,33.6,19.3,12.3,87,68,42,30.25,30.11,4,0,4,0.00
2012-2-19,52.2,34.1,18.0,36.7,25.7,14.0,89,72,49,30.11,29.91,12,3,12,0.00
2012-2-20,41.4,37.5,33.8,40.3,34.4,27.6,96,89,76,29.92,29.56,16,5,16,0.00
2012-2-21,45.2,35.8,32.8,35.1,30.2,26.6,91,81,63,29.85,29.61,5,3,5,0.00
2012-2-22,54.4,43.4,34.9,39.9,34.3,28.7,83,71,53,29.61,29.36,5,1,5,0.00
2012-2-23,48.2,38.9,31.3,41.3,34.6,28.4,92,85,69,29.82,29.25,11,3,11,0.00
2012-2-24,45.0,33.9,26.3,32.0,25.3,17.6,90,71,46,30.23,29.82,10,3,10,0.00
2012-2-25,39.4,31.1,15.7,28.4,20.4,9.9,82,65,44,30.26,29.66,20,6,20,0.00
2012-2-26,54.7,42.9,29.5,30.7,26.8,19.4,73,55,37,30.26,29.64,15,3,15,0.00
2012-2-27,40.1,31.0,16.4,24.1,18.5,10.5,80,61,45,30.49,30.22,9,2,9,0.00
2012-2-28,54.2,43.0,34.6,52.5,37.8,23.8,95,82,62,30.22,29.32,16,4,16,0.00
2012-2-29,42.5,34.3,24.8,37.0,26.9,21.2,86,74,63,29.85,29.41,13,6,13,0.00
2012-3-1,50.0,34.8,21.4,36.5,28.5,18.4,91,79,57,29.84,29.61,6,2,6,0.00
2012-3-2,50.0,37.8,29.5,30.0,26.2,20.2,86,66,39,29.91,29.67,5,2,5,0.00
2012-3-3,44.5,32.9,23.8,23.9,20.6,16.7,80,62,44,29.97,29.89,7,2,7,0.00
2012-3-4,55.6,37.8,23.4,38.8,25.8,17.4,85,64,41,30.18,29.79,8,2,8,0.00
2012-3-5,60.8,40.5,19.3,32.5,25.0,14.6,86,58,32,30.21,29.75,17,4,17,0.00
2012-3-6,72.0,60.8,48.1,50.9,41.2,34.5,70,50,33,29.75,29.59,18,9,18,0.00
2012-3-7,60.8,52.7,38.9,50.9,44.2,32.4,81,73,62,29.82,29.51,12,2,12,0.00
2012-3-8,37.8,35.2,33.5,17.6,16.2,14.3,51,46,38,30.39,30.38,0,0,0,0.00
2012-3-9,66.6,45.9,23.8,29.9,21.4,14.0,75,41,18,30.50,30.24,13,3,13,0.14
2012-3-10,70.2,54.6,35.6,33.1,26.5,21.4,65,37,17,30.24,30.00,22,6,22,0.00
2012-3-11,51.1,47.2,44.8,46.1,39.0,27.4,94,74,49,30.04,29.71,11,3,11,0.11
2012-3-12,73.3,57.5,42.7,51.6,45.4,38.3,95,67,40,29.93,29.65,10,3,10,0.05
2012-3-13,84.1,61.8,36.7,57.2,43.9,33.1,92,58,20,29.96,29.76,12,2,12,0.00
2012-3-14,82.4,66.2,49.7,64.5,47.7,33.6,92,57,21,29.93,29.74,12,3,12,0.00
2012-3-15,80.3,58.8,38.9,64.2,47.8,29.9,87,68,51,29.98,29.88,7,1,7,0.00
2012-3-16,80.8,63.2,47.2,63.1,54.8,44.7,93,76,45,29.93,29.77,11,3,11,0.00
2012-3-17,84.1,71.4,61.6,63.6,60.7,58.3,91,71,45,29.80,29.66,21,8,21,0.00
2012-3-18,82.4,71.4,63.7,62.2,60.4,58.6,84,70,48,29.74,29.65,21,9,21,0.00
2012-3-19,75.1,63.2,55.4,62.3,56.6,50.8,91,80,49,29.68,29.49,20,5,20,0.09
2012-3-20,58.7,54.4,51.8,55.9,52.3,49.9,95,93,89,29.87,29.67,10,1,10,0.26
2012-3-21,61.6,57.2,53.3,59.5,55.7,51.7,96,95,90,29.93,29.82,12,3,12,0.14
2012-3-22,67.9,57.5,47.7,58.8,50.5,45.4,96,79,54,29.94,29.83,12,3,12,0.06
2012-3-23,72.0,58.1,43.2,55.5,48.0,40.8,94,71,46,29.95,29.88,6,1,6,0.00
2012-3-24,84.8,64.7,45.4,56.0,45.6,39.8,85,54,29,30.01,29.91,5,1,5,0.00
2012-3-25,84.2,64.9,46.4,58.9,48.3,41.0,90,58,30,30.07,29.94,10,1,10,0.00
2012-3-26,86.2,70.8,57.6,61.0,54.0,47.2,75,57,35,29.99,29.72,19,4,19,0.00
2012-3-27,80.8,69.2,53.1,56.4,41.8,27.1,81,42,15,29.95,29.69,17,4,17,0.00
2012-3-28,76.0,60.9,40.1,47.8,39.2,30.4,77,47,26,30.03,29.87,11,3,11,0.00
2012-3-29,72.2,62.7,57.2,63.1,53.8,42.8,93,74,46,29.87,29.66,14,5,16,0.00
2012-3-30,83.3,64.8,46.3,60.9,49.7,41.0,94,64,25,29.82,29.66,10,2,10,0.01
2012-3-31,93.6,73.0,53.6,65.3,49.0,36.6,82,51,15,29.75,29.61,10,3,10,0.00
2012-4-1,93.8,76.2,60.8,66.3,60.4,49.7,87,61,35,29.63,29.38,12,4,12,0.00
2012-4-2,93.6,75.7,57.1,64.5,58.3,51.1,82,59,29,29.82,29.41,16,6,16,0.00
2012-4-3,68.0,58.1,49.7,53.0,48.2,44.1,83,70,55,29.96,29.81,8,3,8,0.00
2012-4-4,60.5,56.5,50.9,49.5,46.1,40.3,76,68,61,29.94,29.79,12,4,12,0.00
2012-4-5,66.1,56.9,46.4,49.6,42.2,32.9,90,61,35,30.06,29.83,12,3,12,0.01
2012-4-6,70.0,54.5,38.7,43.6,37.7,31.2,79,55,34,30.14,29.91,18,4,18,0.00
2012-4-7,64.8,55.1,39.2,50.2,34.3,21.0,88,50,22,30.32,29.95,7,2,7,0.02
2012-4-8,76.3,55.7,32.8,41.6,29.3,19.8,72,41,19,30.34,30.09,15,2,15,0.00
2012-4-9,71.5,54.2,33.8,33.5,24.2,18.9,63,34,16,30.21,30.12,6,1,6,0.00
2012-4-10,63.0,44.2,29.3,28.7,21.0,16.1,63,41,21,30.27,30.16,5,1,5,0.00
2012-4-11,60.1,46.1,29.2,25.5,21.3,17.4,63,39,23,30.34,30.13,9,2,9,0.00
2012-4-12,52.4,47.8,41.0,46.4,37.4,21.9,91,69,45,30.14,29.82,20,6,20,0.30
2012-4-13,78.5,62.4,48.8,62.1,48.8,42.1,92,66,34,29.82,29.62,13,4,13,0.07
2012-4-14,63.4,55.5,42.3,61.7,52.5,37.6,96,90,70,29.81,29.40,14,3,14,1.29
2012-4-15,73.3,59.2,44.6,65.2,51.2,39.3,95,77,37,29.56,29.25,24,6,24,0.46
2012-4-16,61.7,51.4,41.4,44.1,38.0,32.4,81,62,39,30.20,29.56,9,3,9,0.00
2012-4-17,75.2,58.9,39.4,53.6,45.1,32.5,92,63,40,30.24,30.00,19,5,19,0.04
2012-4-18,74.7,64.7,52.9,59.6,51.9,46.3,81,64,48,30.02,29.84,15,3,15,0.07
2012-4-19,68.4,53.4,43.9,59.8,49.2,40.6,92,86,71,29.94,29.69,7,2,7,0.09
2012-4-20,59.6,50.4,38.9,43.0,37.9,32.5,90,65,39,30.09,29.93,8,2,8,0.01
2012-4-21,75.1,57.7,40.9,46.9,37.4,32.4,76,51,23,30.03,29.88,8,2,8,0.00
2012-4-22,63.5,53.0,41.4,41.1,36.3,31.2,80,55,31,30.24,30.03,9,2,9,0.00
2012-4-23,73.8,57.0,34.9,45.2,36.9,29.7,87,52,26,30.24,29.85,8,2,8,0.00
2012-4-24,89.8,70.7,52.0,61.3,48.1,40.1,73,47,23,29.85,29.56,8,3,8,0.00
2012-4-25,93.8,76.3,59.8,60.5,47.3,38.8,69,40,19,29.81,29.49,7,2,7,0.00
2012-4-26,74.7,65.8,54.7,53.7,45.8,39.3,69,49,37,30.02,29.81,10,4,10,0.00
2012-4-27,62.8,55.5,47.7,46.3,42.1,37.9,91,62,47,29.97,29.56,24,9,24,0.42
2012-4-28,65.3,54.4,45.0,54.5,48.3,42.6,94,81,65,30.07,29.67,8,2,8,0.00
2012-4-29,52.6,49.7,44.3,49.7,47.2,41.6,94,91,86,30.06,29.96,10,3,10,0.02
2012-4-30,74.3,60.8,44.6,60.1,51.5,42.8,95,74,49,30.00,29.79,10,2,10,0.00
2012-5-1,86.8,72.6,57.1,67.6,61.7,53.9,94,71,49,29.79,29.55,16,5,16,0.10
2012-5-2,86.9,76.1,63.7,74.6,67.3,59.1,94,75,56,29.73,29.57,10,2,10,0.46
2012-5-3,85.7,72.7,61.0,71.9,65.3,57.4,94,79,59,29.83,29.68,12,2,12,0.87
2012-5-4,89.1,76.1,64.1,75.4,68.4,61.7,96,79,52,29.82,29.71,11,2,11,0.00
2012-5-5,92.3,81.4,68.8,75.5,69.6,65.3,91,69,44,29.81,29.68,16,4,16,0.00
2012-5-6,76.3,67.6,58.7,68.4,60.6,51.1,93,79,66,30.03,29.72,15,3,15,0.81
2012-5-7,70.9,61.6,52.2,50.8,44.9,39.1,80,56,34,30.11,30.02,6,2,6,0.00
2012-5-8,70.2,58.7,46.6,43.5,39.5,36.6,72,51,30,30.07,29.99,8,2,8,0.00
2012-5-9,70.7,59.2,44.5,50.1,43.3,37.7,84,58,38,30.11,29.91,5,1,5,0.00
2012-5-10,87.5,71.7,50.4,56.3,49.1,41.1,75,48,28,29.91,29.73,16,4,16,0.00
2012-5-11,74.5,65.5,52.2,52.8,47.3,37.0,72,53,39,30.24,29.80,11,3,11,0.00
2012-5-12,71.1,59.7,48.4,47.4,42.6,38.6,70,54,39,30.33,30.22,10,2,10,0.00
2012-5-13,80.3,66.4,52.9,49.5,42.8,39.0,67,45,26,30.28,30.13,6,1,6,0.00
2012-5-14,86.8,70.1,47.5,55.6,43.7,37.2,80,43,19,30.14,29.97,5,1,5,0.00
2012-5-15,90.4,73.5,56.0,57.0,44.0,31.0,75,39,17,30.07,29.95,6,2,6,0.00
2012-5-16,81.4,67.0,44.8,43.2,37.2,31.5,64,36,19,30.15,29.95,11,2,11,0.00
2012-5-17,93.2,77.1,57.4,55.4,48.0,40.3,61,38,19,29.96,29.74,22,5,22,0.00
2012-5-18,94.7,81.0,67.0,60.3,56.0,52.6,65,44,27,29.80,29.66,19,4,19,0.00
2012-5-19,89.5,79.3,61.0,69.1,60.9,56.6,87,54,42,29.81,29.65,18,4,18,0.01
2012-5-20,71.8,65.2,52.4,56.0,49.0,43.8,73,56,46,30.25,30.16,6,2,6,0.00
2012-5-21,79.7,66.5,47.3,55.7,45.0,40.8,80,50,28,30.27,30.05,9,2,9,0.00
2012-5-22,88.4,73.4,56.9,53.7,48.6,43.1,64,43,29,30.05,29.66,17,5,17,0.00
2012-5-23,95.8,79.9,67.1,66.5,58.3,48.2,93,50,31,29.67,29.34,20,5,20,0.08
2012-5-24,75.8,65.6,56.5,65.2,57.2,50.8,93,76,52,29.80,29.41,10,2,10,0.01
2012-5-25,74.0,64.8,55.4,64.4,57.5,50.6,92,78,53,29.96,29.80,14,4,14,0.01
2012-5-26,100.1,81.4,63.5,75.1,67.1,57.4,86,65,39,29.90,29.71,14,4,14,0.00
2012-5-27,95.4,84.1,65.3,69.7,66.0,61.4,88,57,38,29.78,29.57,19,8,19,0.03
2012-5-28,80.8,71.4,61.2,65.8,56.0,46.3,95,63,31,29.86,29.66,9,3,9,0.11
2012-5-29,77.9,66.7,54.9,52.9,47.2,43.6,81,52,30,30.04,29.84,5,1,5,0.00
2012-5-30,69.5,59.3,50.0,57.3,49.4,43.3,92,72,46,30.04,29.80,21,2,21,0.02
2012-5-31,61.4,54.0,46.4,52.9,48.4,41.6,92,82,63,30.04,29.91,5,1,5,0.00
2012-6-1,72.7,58.6,45.0,52.6,48.3,41.4,92,70,45,30.04,29.84,7,2,7,0.00
2012-6-2,83.7,69.2,51.7,57.8,50.1,45.6,89,55,28,29.87,29.80,5,2,5,0.00
2012-6-3,94.7,78.6,60.8,66.8,58.8,46.8,68,52,38,29.83,29.73,13,3,13,0.00
2012-6-4,90.7,79.4,66.2,66.5,60.2,51.6,79,54,32,29.94,29.81,9,2,9,0.00
2012-6-5,93.6,78.6,59.6,67.4,58.7,51.5,76,52,35,29.97,29.85,8,2,8,0.00
2012-6-6,94.3,79.7,64.1,63.1,57.2,52.4,68,48,32,30.01,29.88,8,3,8,0.00
2012-6-7,87.8,71.0,64.8,62.0,57.0,54.5,71,62,42,30.08,30.01,8,2,8,0.00
2012-6-8,91.8,79.8,63.7,63.0,55.9,51.0,68,46,30,30.03,29.81,13,4,13,0.00
2012-6-9,95.9,82.3,65.2,64.2,58.2,52.1,65,45,29,29.84,29.60,15,5,15,0.00
2012-6-10,94.3,80.1,65.5,70.0,65.7,61.7,88,63,44,29.80,29.61,16,3,16,0.02
2012-6-11,83.2,70.9,57.8,62.2,53.8,48.2,93,59,32,30.08,29.79,6,2,6,0.00
2012-6-12,80.6,68.1,53.3,54.9,49.5,43.3,70,53,34,30.22,30.06,9,2,9,0.00
2012-6-13,91.4,77.2,63.7,61.6,56.3,50.3,64,50,32,30.10,29.79,14,4,16,0.00
2012-6-14,90.5,74.8,64.1,69.5,64.6,60.5,93,72,49,29.95,29.80,16,7,16,0.15
2012-6-15,74.0,67.8,63.4,69.4,64.5,60.3,95,89,80,29.96,29.82,20,2,20,0.00
2012-6-16,72.4,64.7,60.8,68.6,62.4,58.5,95,92,87,30.00,29.90,5,1,5,0.00
2012-6-17,91.8,79.6,63.0,76.0,68.4,60.1,94,71,52,29.99,29.55,19,5,19,0.00
2012-6-18,96.3,86.6,76.0,75.3,70.3,63.4,77,59,48,29.61,29.50,17,7,17,0.00
2012-6-19,93.2,84.8,75.8,74.2,70.3,67.2,77,62,51,29.72,29.61,18,9,18,0.00
2012-6-20,88.2,75.4,59.9,73.5,67.2,58.0,93,77,60,30.01,29.68,14,5,15,0.04
2012-6-21,81.4,71.0,58.1,65.7,58.9,55.9,95,68,45,30.13,30.02,4,1,4,0.00
2012-6-22,90.0,74.9,57.1,67.5,60.3,52.9,90,63,42,30.08,29.89,12,3,12,0.00
2012-6-23,76.0,68.7,63.5,70.5,63.0,56.7,90,82,70,29.98,29.80,16,5,16,0.01
2012-6-24,97.9,82.8,69.8,78.3,73.5,67.1,94,75,50,29.91,29.80,9,3,9,0.00
2012-6-25,86.8,79.7,72.9,76.2,72.8,67.3,93,80,67,29.98,29.89,14,5,14,0.01
2012-6-26,88.4,77.8,65.9,75.5,66.9,58.3,85,70,53,29.92,29.67,15,5,15,0.00
2012-6-27,102.1,90.5,79.2,79.1,73.5,68.7,78,59,42,29.76,29.64,14,5,14,0.00
2012-6-28,95.6,86.7,74.5,83.1,77.1,68.4,91,74,61,29.91,29.76,9,2,9,0.00
2012-6-29,89.1,81.6,75.1,78.8,72.3,65.6,91,74,55,29.90,29.75,13,3,13,0.11
2012-6-30,92.9,81.5,67.3,78.4,72.9,64.3,91,76,60,29.85,29.77,9,2,9,0.00
2012-7-1,95.9,82.5,68.4,76.1,70.6,63.5,89,69,46,29.93,29.82,8,2,8,0.00
2012-7-2,100.6,87.1,74.2,75.9,69.9,65.3,76,58,41,29.92,29.82,12,3,12,0.00
2012-7-3,101.7,88.1,75.8,75.4,70.6,67.1,75,58,40,29.86,29.76,10,3,10,0.00
2012-7-4,101.3,89.7,75.4,74.8,69.4,63.3,66,52,39,29.83,29.76,13,4,13,0.00
2012-7-5,105.1,91.0,78.8,75.2,69.6,64.1,68,51,33,29.92,29.82,12,3,12,0.00
2012-7-6,106.9,92.4,77.2,74.5,69.7,64.9,67,50,33,29.95,29.90,9,3,9,0.00
2012-7-7,86.8,80.5,72.4,76.2,70.4,63.9,86,72,56,30.08,29.93,7,2,7,0.00
2012-7-8,87.7,77.8,69.5,72.0,67.3,62.6,83,70,59,30.13,30.04,14,3,14,0.00
2012-7-9,89.5,78.1,67.0,68.8,65.4,61.0,82,66,47,30.13,30.05,9,2,9,0.00
2012-7-10,88.2,76.6,62.5,66.1,61.1,56.1,88,61,38,30.15,30.07,8,2,8,0.00
2012-7-11,89.3,75.7,58.3,69.7,62.1,53.5,87,65,45,30.11,30.00,6,1,6,0.00
2012-7-12,97.4,79.8,61.2,73.1,63.1,57.1,88,61,30,30.03,29.92,5,1,5,0.00
2012-7-13,94.0,73.8,69.5,74.7,65.5,61.7,86,76,50,29.98,29.95,3,0,3,0.00
2012-7-16,100.6,92.1,78.1,71.0,68.0,65.3,67,47,36,29.91,29.79,10,3,10,0.00
2012-7-17,106.4,89.2,74.2,72.9,67.7,64.4,72,52,32,29.83,29.75,8,3,8,0.00
2012-7-18,102.6,87.9,72.9,75.8,69.3,62.7,75,56,36,29.89,29.77,6,1,6,0.00
2012-7-19,99.5,86.4,70.0,78.3,69.9,64.4,89,61,35,30.04,29.88,7,2,7,0.00
2012-7-20,100.3,85.0,69.7,75.7,69.2,64.5,87,62,41,30.09,30.00,11,2,11,0.00
2012-7-21,98.8,81.8,70.0,72.2,65.2,60.4,75,60,31,30.07,29.93,8,2,8,0.00
2012-7-22,105.7,89.2,72.7,70.7,62.9,59.9,69,45,25,30.04,29.91,10,3,10,0.00
2012-7-23,110.2,91.9,72.7,72.5,64.8,59.8,71,43,26,30.03,29.89,9,2,9,0.00
2012-7-24,105.3,91.5,74.3,71.7,66.6,61.9,69,46,31,29.92,29.73,13,3,13,0.00
2012-7-25,105.5,91.2,75.6,73.5,68.1,63.6,87,49,32,29.78,29.63,10,4,10,0.04
2012-7-26,99.7,84.1,70.9,76.9,67.9,60.3,93,63,32,29.93,29.77,6,1,6,0.00
2012-7-27,87.7,76.7,62.6,64.1,60.5,55.1,79,59,42,30.07,29.93,6,1,6,0.00
2012-7-28,91.1,78.4,62.6,68.0,63.5,57.3,86,62,43,30.11,29.92,14,4,14,0.00
2012-7-29,99.7,85.5,65.9,72.9,66.4,59.4,81,55,35,29.94,29.88,7,1,7,0.00
2012-7-30,99.0,83.2,70.9,71.6,65.9,60.3,87,60,30,29.99,29.90,5,1,5,0.00
2012-7-31,100.8,83.9,65.0,73.1,64.9,59.4,86,56,30,29.99,29.90,6,1,6,0.00
2012-8-1,102.2,85.6,69.3,73.8,65.8,61.7,81,55,31,29.96,29.78,10,2,10,0.00
2012-8-2,96.1,82.5,69.5,74.2,68.8,64.4,90,66,44,29.88,29.79,9,1,9,0.02
2012-8-3,102.8,84.6,67.0,75.7,68.3,62.7,92,62,36,29.89,29.72,10,2,10,0.00
2012-8-4,83.2,73.6,63.0,68.1,60.3,52.8,88,65,38,30.06,29.77,11,2,11,0.03
2012-8-5,89.1,73.5,55.8,63.0,56.7,49.7,87,58,34,30.24,30.06,6,1,6,0.00
2012-8-6,101.2,82.5,59.4,66.0,57.1,51.8,83,47,24,30.14,29.94,10,3,10,0.00
2012-8-7,106.9,87.3,67.3,69.5,61.6,53.3,69,45,24,29.96,29.89,8,2,8,0.00
2012-8-8,105.1,84.1,68.4,71.5,64.2,52.3,82,55,23,29.98,29.82,13,2,13,0.00
2012-8-9,86.8,75.8,64.6,65.3,61.2,55.2,88,63,42,30.06,29.96,5,1,5,0.00
2012-8-10,82.1,69.6,53.3,59.6,54.4,48.6,86,61,40,30.13,30.02,7,1,7,0.00
2012-8-11,88.7,70.0,50.8,63.5,54.7,46.0,88,62,34,30.08,29.91,8,2,8,0.00
2012-8-12,89.3,73.2,62.5,67.4,60.3,55.6,83,65,42,29.98,29.85,8,2,8,0.00
2012-8-13,78.5,67.7,59.6,60.4,56.9,51.3,86,70,46,30.12,29.98,6,1,6,0.00
2012-8-14,92.2,73.0,53.6,64.7,57.7,48.5,86,62,38,30.04,29.87,12,2,12,0.00
2012-8-15,94.0,78.2,60.3,68.4,62.7,56.1,88,62,42,29.88,29.70,14,5,14,0.00
2012-8-16,77.4,68.8,53.1,64.3,52.2,42.9,76,57,38,30.12,29.82,6,2,6,0.00
2012-8-17,83.9,65.8,44.6,54.4,46.3,39.3,84,53,31,30.14,30.00,5,1,5,0.00
2012-8-18,74.7,59.0,47.2,57.1,48.5,39.9,85,69,37,30.05,29.92,9,2,9,0.02
2012-8-19,82.8,67.3,45.9,59.9,49.7,42.9,92,58,31,30.09,29.98,5,1,5,0.00
2012-8-20,90.9,72.5,50.8,58.6,50.2,44.1,80,50,25,30.03,29.90,6,1,6,0.00
2012-8-21,97.6,76.2,53.6,59.3,53.7,48.3,83,50,24,30.02,29.93,6,1,6,0.00
2012-8-22,97.6,80.3,62.1,65.7,55.3,49.0,64,44,30,29.98,29.87,12,3,12,0.00
2012-8-23,94.1,81.3,67.0,66.8,60.0,51.3,70,49,39,29.93,29.83,16,5,16,0.00
2012-8-24,82.3,71.4,68.0,70.7,65.9,62.9,93,83,65,29.91,29.84,17,4,17,0.14
2012-8-25,76.0,70.0,65.3,71.3,66.2,61.6,93,88,81,29.91,29.81,6,2,6,0.09
2012-8-26,84.6,72.8,64.6,72.2,67.0,60.4,95,83,61,30.07,29.90,5,1,5,0.00
2012-8-27,95.8,77.3,57.2,76.3,64.1,54.9,94,68,42,30.16,30.05,6,1,6,0.00
2012-8-28,98.3,80.8,62.5,69.8,60.5,56.4,87,55,27,30.11,29.92,12,3,12,0.00
2012-8-29,99.5,82.9,64.8,64.9,58.7,53.4,77,48,24,29.97,29.84,16,4,16,0.00
2012-8-30,102.8,84.9,68.6,66.6,60.1,56.6,69,47,26,29.93,29.85,12,4,12,0.00
2012-8-31,98.5,79.3,57.6,68.7,60.9,52.9,87,58,27,30.00,29.91,12,2,12,0.00
2012-9-1,94.9,79.5,62.3,73.0,65.0,58.4,91,64,41,30.03,29.92,7,1,7,0.00
2012-9-2,99.2,81.9,61.6,71.7,65.3,57.7,88,61,36,29.97,29.83,9,2,9,0.00
2012-9-3,85.7,76.8,67.9,72.8,68.1,62.1,87,75,62,29.95,29.83,13,2,13,0.00
2012-9-4,102.8,82.4,63.7,76.7,65.9,56.3,95,63,29,29.88,29.71,8,2,8,0.07
2012-9-5,88.7,74.2,55.3,63.4,53.9,44.3,83,52,25,29.95,29.72,7,1,7,0.00
2012-9-6,94.5,72.7,47.2,63.1,52.7,41.1,82,54,27,30.00,29.75,12,2,12,0.00
2012-9-7,74.9,67.2,56.5,62.7,53.0,43.5,80,61,39,30.11,29.77,6,2,6,0.00
2012-9-8,85.3,66.8,43.2,50.1,42.6,37.4,84,47,21,30.16,29.96,6,2,6,0.00
2012-9-9,76.9,63.8,47.0,50.0,44.4,38.3,77,51,35,30.23,30.07,3,1,3,0.00
2012-9-10,88.7,70.8,50.8,54.5,49.3,42.1,80,50,28,30.11,29.87,12,5,12,0.00
2012-9-11,96.7,79.6,61.6,53.7,51.5,49.2,69,41,23,29.89,29.80,14,6,14,0.00
2012-9-12,78.3,63.5,54.2,57.8,52.3,45.8,94,70,39,30.27,29.87,11,3,11,0.51
2012-9-13,69.8,57.5,49.7,53.7,50.1,46.6,95,78,52,30.40,30.24,7,1,7,0.00
2012-9-14,84.6,64.7,45.2,60.0,46.5,41.9,92,58,25,30.35,30.23,8,2,8,0.00
2012-9-15,82.4,65.1,43.9,58.6,50.8,37.8,86,62,38,30.26,30.06,12,2,12,0.00
2012-9-16,80.8,66.4,56.5,64.8,58.2,53.9,94,77,46,30.07,29.88,9,2,9,0.00
2012-9-17,66.6,57.7,49.3,58.7,49.4,37.6,95,76,41,30.05,29.87,14,1,14,0.01
2012-9-18,74.7,58.2,37.4,51.8,40.8,32.8,88,56,30,30.11,29.90,9,1,9,0.00
2012-9-19,94.7,69.5,52.4,59.4,44.6,33.7,77,46,17,30.00,29.77,10,2,10,0.00
2012-9-20,78.1,61.8,44.8,46.5,37.1,32.7,70,43,22,30.06,29.92,5,1,5,0.00
2012-9-21,77.4,64.0,51.8,42.6,37.7,31.0,69,41,19,29.94,29.81,10,2,10,0.00
2012-9-22,65.0,54.4,39.8,39.3,30.0,22.4,62,41,23,30.27,29.94,6,1,6,0.00
2012-9-23,75.4,54.4,33.7,39.3,31.6,22.6,73,46,22,30.32,30.16,6,1,6,0.00
2012-9-24,79.6,61.5,42.1,50.6,43.0,32.6,72,52,33,30.16,29.81,8,1,8,0.00
2012-9-25,84.2,66.7,48.4,55.8,47.2,39.3,83,54,28,29.89,29.80,8,1,8,0.00
2012-9-26,78.5,60.9,47.2,44.6,38.2,27.8,68,46,22,30.13,29.87,7,1,7,0.00
2012-9-27,78.1,57.5,38.2,43.2,32.3,27.2,76,42,19,30.20,30.09,6,1,6,0.00
2012-9-28,78.1,57.2,38.2,43.0,32.7,28.1,73,44,19,30.18,30.08,6,1,6,0.00
2012-9-29,83.0,61.3,41.0,55.6,39.8,30.8,81,49,26,30.16,30.02,7,1,7,0.00
2012-9-30,84.4,63.9,48.2,52.0,41.8,35.8,73,48,23,30.04,29.90,7,1,7,0.00
2012-10-1,77.0,60.6,48.8,53.2,44.6,37.0,69,56,42,29.99,29.87,8,1,8,0.00
2012-10-2,78.8,59.2,37.8,45.6,32.9,25.7,77,42,17,29.99,29.84,5,1,5,0.00
2012-10-3,83.7,65.6,45.2,46.9,38.7,28.6,61,40,21,29.94,29.74,14,3,14,0.00
2012-10-4,62.3,51.5,44.3,44.7,36.8,30.1,81,59,41,30.29,29.94,7,2,7,0.02
2012-10-5,52.9,42.6,32.2,31.7,27.2,20.8,80,56,33,30.33,30.22,5,1,5,0.00
2012-10-6,50.8,38.5,27.2,27.6,22.7,16.2,70,54,38,30.35,30.25,5,1,5,0.00
2012-10-7,58.3,40.7,24.5,33.6,25.2,18.6,81,57,32,30.28,30.00,7,2,7,0.00
2012-10-8,74.2,61.6,37.1,41.1,34.7,30.6,80,42,23,30.00,29.76,14,5,14,0.00
2012-10-9,58.5,49.5,34.7,43.9,30.5,18.6,72,49,31,30.13,29.78,6,1,6,0.00
2012-10-10,69.5,48.7,28.3,38.1,27.5,18.1,75,47,28,30.21,30.01,9,2,9,0.00
2012-10-11,66.6,54.1,46.1,41.7,33.9,29.2,60,47,34,30.31,29.97,12,4,12,0.00
2012-10-12,53.8,46.9,32.8,43.8,30.2,22.4,72,53,34,30.31,29.97,13,4,13,0.00
2012-10-13,75.2,62.7,51.7,67.5,56.8,43.7,94,82,65,29.97,29.55,14,3,14,0.19
2012-10-14,67.7,57.8,47.5,58.9,44.6,37.6,93,64,38,29.97,29.60,8,2,8,0.41
2012-10-15,78.5,59.3,38.7,54.5,44.1,33.7,88,61,33,29.97,29.72,8,1,8,0.00
2012-10-16,81.0,64.6,50.4,52.3,46.3,42.4,83,56,29,29.72,29.40,7,2,7,0.00
2012-10-17,67.5,59.2,50.2,50.2,37.3,19.2,81,47,21,29.62,29.34,13,5,13,0.00
2012-10-18,51.5,49.2,45.0,41.2,31.7,24.3,85,53,37,29.66,29.54,18,8,18,0.00
2012-10-19,53.5,45.3,33.5,43.0,38.7,29.3,89,78,64,29.81,29.64,9,3,9,0.00
2012-10-20,69.1,49.9,31.0,51.2,39.2,28.2,93,69,41,29.80,29.65,13,2,13,0.00
2012-10-21,81.0,63.1,43.9,64.2,52.9,38.2,90,71,48,29.76,29.68,8,2,8,0.00
2012-10-22,65.0,56.9,53.1,61.2,53.5,50.7,95,89,74,29.80,29.73,5,2,5,0.00
2012-10-23,76.7,59.7,52.2,66.3,55.4,49.6,95,87,62,29.78,29.63,5,1,5,0.00
2012-10-24,56.2,52.9,45.7,54.7,51.2,42.8,96,94,89,29.78,29.72,7,2,7,0.00
2012-10-25,45.9,38.3,35.3,42.6,33.7,28.5,93,83,73,30.31,29.65,12,3,12,0.20
2012-10-26,43.6,35.1,25.2,30.6,26.8,20.0,85,72,55,30.47,30.30,4,1,4,0.00
2012-10-27,51.8,35.2,21.4,38.3,26.6,17.6,88,72,49,30.38,30.21,7,1,7,0.00
2012-10-28,58.0,44.2,30.1,38.3,31.7,24.5,84,63,43,30.27,30.14,9,2,9,0.00
2012-10-29,62.3,49.9,41.9,38.5,34.2,31.1,68,56,38,30.18,30.03,12,3,12,0.00
2012-10-30,55.1,42.9,33.5,35.0,31.0,25.0,82,64,44,30.06,30.00,10,3,10,0.00
2012-10-31,65.2,45.9,29.3,40.9,32.4,24.0,84,62,38,30.04,29.94,7,1,7,0.00
2012-11-1,59.4,47.1,35.1,43.9,38.3,30.8,87,72,53,29.99,29.90,6,1,6,0.00
2012-11-2,54.4,42.2,34.7,36.7,32.5,27.8,89,70,48,30.06,29.90,13,2,13,0.00
2012-11-3,56.0,41.5,29.9,39.0,32.0,25.0,87,70,49,30.18,30.06,4,0,4,0.00
2012-11-4,64.8,47.6,33.8,44.8,37.6,29.2,88,71,41,30.15,29.96,13,2,13,0.00
2012-11-5,44.6,41.0,38.7,41.3,36.7,34.7,88,85,81,30.14,30.01,6,2,6,0.00
2012-11-6,58.3,46.7,37.4,39.2,32.9,28.7,87,62,34,30.07,29.92,10,4,10,0.00
2012-11-7,57.1,44.4,31.3,38.4,31.8,24.7,80,62,44,30.16,29.97,5,1,5,0.00
2012-11-8,67.7,49.2,35.1,41.6,34.3,28.5,80,59,36,29.97,29.81,11,2,11,0.00
2012-11-9,66.1,51.0,35.5,54.9,42.9,29.2,87,75,61,29.83,29.59,11,2,11,0.00
2012-11-10,78.8,66.0,41.2,58.6,54.4,36.7,87,68,45,29.68,29.43,22,9,22,0.05
2012-11-11,41.2,28.8,21.6,36.7,20.5,13.6,87,72,51,30.15,29.67,8,3,8,0.00
2012-11-12,42.8,29.6,19.1,21.0,16.0,11.3,79,59,36,30.32,30.15,10,3,10,0.00
2012-11-13,59.0,39.9,19.6,32.8,22.6,10.7,76,54,24,30.33,30.19,12,4,12,0.00
2012-11-14,60.5,46.0,31.3,36.2,28.6,24.7,77,53,32,30.26,30.13,11,4,11,0.00
2012-11-15,58.7,44.8,31.5,37.4,30.8,24.3,79,59,43,30.39,30.13,6,1,7,0.00
2012-11-16,59.2,41.0,21.4,38.5,30.0,16.6,86,67,43,30.42,30.24,10,1,10,0.00
2012-11-17,63.7,50.8,39.6,39.3,35.4,30.2,75,57,39,30.25,30.09,19,5,19,0.00
2012-11-18,62.5,52.3,42.8,39.6,34.3,28.9,63,51,37,30.11,29.98,14,6,14,0.00
2012-11-19,63.4,50.4,40.9,42.3,37.6,31.2,80,63,45,30.11,29.96,8,2,8,0.00
2012-11-20,63.7,48.2,29.9,43.7,35.0,25.0,85,62,41,30.20,30.07,8,2,8,0.00
2012-11-21,73.1,59.1,45.0,49.5,43.5,35.7,74,58,36,30.08,29.77,19,8,19,0.00
2012-11-22,63.5,52.2,38.9,46.7,39.0,28.8,79,62,41,30.23,29.71,12,3,13,0.00
2012-11-23,40.9,28.7,18.2,28.4,12.1,4.1,70,51,31,30.47,30.22,11,2,11,0.00
2012-11-24,49.5,34.1,16.9,24.9,18.0,6.5,69,53,38,30.34,29.82,14,3,14,0.00
2012-11-25,43.6,37.5,28.1,31.2,27.0,22.1,81,66,54,30.11,29.84,5,1,5,0.00
2012-11-26,33.5,26.4,11.0,27.0,19.9,5.0,86,76,68,30.41,30.11,7,2,7,0.00
2012-11-27,45.7,26.1,10.3,28.2,17.5,5.8,87,71,49,30.39,30.13,12,3,12,0.00
2012-11-28,51.3,36.0,14.2,35.6,24.5,10.3,86,65,39,30.32,30.04,12,2,12,0.00
2012-11-29,58.0,42.2,29.9,42.0,32.1,25.0,83,68,50,30.05,29.88,6,2,6,0.00
2012-11-30,48.8,37.8,27.0,35.1,28.8,21.5,85,70,58,30.07,29.92,5,1,5,0.00
2012-12-1,58.7,44.9,26.6,52.4,40.5,22.2,88,85,78,29.93,29.73,7,1,7,0.00
2012-12-2,66.8,48.6,31.0,49.9,39.4,27.3,87,72,46,29.99,29.72,6,1,6,0.00
2012-12-3,62.5,48.1,36.9,46.3,36.6,23.7,86,66,42,30.07,29.59,6,2,6,0.00
2012-12-4,39.8,31.0,26.1,28.4,20.6,17.3,71,65,54,30.19,30.07,3,0,3,0.00
2012-12-6,50.4,45.8,39.2,34.4,29.0,26.6,63,52,45,29.98,29.89,7,2,7,0.00
2012-12-7,50.0,35.9,25.2,34.5,25.5,18.0,80,66,50,29.96,29.84,7,1,7,0.00
2012-12-8,39.1,32.7,24.7,30.2,26.8,20.5,85,79,69,29.98,29.82,9,2,9,0.00
2012-12-9,36.2,25.4,14.9,30.8,16.3,4.7,83,68,56,30.11,29.79,10,4,10,0.00
2012-12-10,34.0,18.5,4.3,18.6,5.5,-1.0,80,58,38,30.10,29.86,10,2,10,0.00
2012-12-11,45.7,32.0,19.4,25.4,17.5,8.6,78,56,41,29.99,29.88,8,3,8,0.00
2012-12-12,53.1,39.9,26.3,22.7,19.0,16.4,67,45,28,29.96,29.86,20,9,20,0.00
2012-12-13,56.9,40.8,24.5,29.1,21.5,14.0,64,47,32,30.03,29.91,14,3,15,0.00
2012-12-14,56.9,37.9,15.5,41.2,27.1,9.3,83,66,47,30.02,29.54,16,2,16,0.07
2012-12-15,44.8,40.0,32.6,40.4,35.3,27.5,86,83,81,29.72,29.40,10,2,10,0.04
2012-12-16,33.3,31.0,29.3,28.6,26.4,24.8,84,83,80,29.79,29.70,3,0,3,0.00
2012-12-17,31.5,27.8,24.1,25.8,23.4,20.3,85,83,78,29.77,29.54,8,2,8,0.00
2012-12-18,46.1,34.7,23.0,37.6,28.5,19.2,85,78,68,29.83,29.45,9,2,9,0.00
2012-12-19,34.0,31.1,26.1,29.0,26.6,21.9,85,83,81,29.86,29.70,7,1,7,0.00
2012-12-20,26.1,19.0,15.7,21.7,14.9,11.3,85,84,82,30.19,29.76,0,0,0,0.00
2012-12-21,40.0,20.2,6.8,29.1,13.9,2.7,85,77,45,30.28,30.11,4,0,4,0.00
2012-12-22,48.6,25.0,10.4,35.6,18.5,6.1,84,77,55,30.11,29.89,4,1,4,0.00
2012-12-23,19.8,13.6,7.7,12.8,8.5,3.6,83,80,69,30.02,29.93,4,1,4,0.00
2012-12-24,18.4,13.2,5.8,11.5,7.8,1.0,83,79,70,30.19,29.98,6,2,6,0.00
2012-12-25,12.8,7.9,2.0,8.0,2.7,-2.9,81,79,77,30.42,30.18,8,3,8,0.00
2012-12-26,18.9,7.4,-1.8,9.2,1.6,-6.0,83,77,59,30.31,30.09,3,0,3,0.00
2012-12-27,23.8,18.0,4.0,18.3,13.1,-0.3,84,81,78,30.10,29.91,10,2,10,0.00
2012-12-28,22.7,19.1,15.3,16.7,14.1,10.7,83,81,75,30.08,29.95,5,2,5,0.00
2012-12-29,37.4,16.9,1.6,25.6,10.4,-2.5,84,76,55,30.18,30.08,6,2,6,0.00
2012-12-30,45.2,27.5,12.2,30.8,19.6,7.5,82,73,54,30.19,29.91,16,4,16,0.00
2012-12-31,24.8,20.5,15.5,17.7,15.0,10.4,83,79,74,30.20,30.06,8,2,8,0.00
2013-1-1,35.5,16.3,2.5,23.2,9.5,-1.8,84,75,56,30.26,30.06,7,2,7,0.00